CheckWX is a tool to help pilots better visualize weather data.  It is not intended as a substitute for an official pre-flight weather briefing.

19:26:37 UTC

CYBW METAR
Calgary / Springbank Airport
Calgary, Canada
Current

27 mins ago

CYBW 261900Z AUTO 14003KT 100V220 9SM BKN060 13/00 A3015 RMK SLP235 DENSITY ALT 4300FT
Observed
May-26 @ 19:00 UTC
Wind
  • 140° at 3 KTS
Visibility
9 SM
Flight Rules
VFR
Cloud Levels
  • Broken at 6,000' AGL
Temperature
13°C / 55°F
Dewpoint
C / 32°F
Humidity
41%
Altimeter
30.15" Hg
Pressure
1021.02 hPa
Previous

1 hour ago

CYBW 261800Z AUTO 18008KT 130V250 9SM FEW240 14/02 A3015 RMK SLP235 DENSITY ALT 4400FT
Observed
May-26 @ 18:00 UTC
Wind
  • 180° at 8 KTS
Visibility
9 SM
Flight Rules
VFR
Cloud Levels
  • Few at 24,000' AGL
Temperature
14°C / 57°F
Dewpoint
C / 36°F
Humidity
44%
Altimeter
30.15" Hg
Pressure
1021.02 hPa
Previous

2 hours ago

CYBW 261700Z AUTO VRB03KT 9SM CLR 13/M00 A3016 RMK SLP237 DENSITY ALT 4200FT
Observed
May-26 @ 17:00 UTC
Wind
  • Variable at 3 KTS
Visibility
9 SM
Flight Rules
VFR
Cloud Levels
  • Clear skies
Temperature
13°C / 55°F
Dewpoint
C / 32°F
Humidity
41%
Altimeter
30.16" Hg
Pressure
1021.32 hPa